Time;durP1;ratioP1;P1;durP2;ratioP2;P2;SDS_P1;SDS_P2;PMS_P1;PMS_P2;Temp;Humidity;BMP_temperature;BMP_pressure;BME280_temperature;BME280_humidity;BME280_pressure;Samples;Min_cycle;Max_cycle;Signal;HPM_P1;HPM_P2
2023/10/21 00:02:04;;;;;;;43.70;41.30;;;;;;;-141.02;63.56;42452.00;5116318;28;20233;-69
2023/10/21 00:04:31;;;;;;;42.28;39.97;;;;;;;-141.02;64.14;42444.34;5116185;28;20201;-69
2023/10/21 00:07:07;;;;;;;44.20;41.80;;;;;;;-141.02;63.93;42452.00;5115771;28;20193;-69
2023/10/21 00:09:34;;;;;;;44.03;41.63;;;;;;;-141.02;63.92;42452.00;5115782;28;20234;-68
2023/10/21 00:12:02;;;;;;;44.13;41.70;;;;;;;-141.02;63.96;42452.00;5115950;28;20228;-68
2023/10/21 00:14:29;;;;;;;42.75;40.38;;;;;;;-141.02;64.48;42467.38;5115534;28;20221;-69
2023/10/21 00:16:56;;;;;;;43.45;41.05;;;;;;;-141.02;63.76;42457.75;5116176;28;20193;-68
2023/10/21 00:19:25;;;;;;;43.22;40.90;;;;;;;-141.02;64.15;42478.88;5115770;28;20193;-68
2023/10/21 00:21:53;;;;;;;43.47;41.08;;;;;;;-141.02;64.09;42461.59;5115534;28;20276;-69
2023/10/21 00:24:20;;;;;;;43.55;41.15;;;;;;;-141.02;64.10;42455.84;5115717;28;20276;-68
2023/10/21 00:26:49;;;;;;;47.28;44.58;;;;;;;-141.02;63.78;42482.72;5115728;28;20250;-67
2023/10/21 00:29:16;;;;;;;46.80;44.10;;;;;;;-141.02;63.38;42467.38;5115677;28;20197;-68
2023/10/21 00:31:43;;;;;;;44.10;41.70;;;;;;;-141.02;63.98;42428.97;5115591;28;20193;-68
2023/10/21 00:34:11;;;;;;;43.03;40.63;;;;;;;-141.02;64.68;42465.44;5115500;28;20235;-69
2023/10/21 00:36:39;;;;;;;46.80;44.20;;;;;;;-141.02;64.65;42480.81;5115492;28;20233;-69
2023/10/21 00:39:12;;;;;;;38.10;36.13;;;;;;;-141.02;64.72;42478.88;5115533;28;20646;-69
2023/10/21 00:41:45;;;;;;;46.15;43.65;;;;;;;-141.02;64.57;42500.00;5115094;28;20540;-69
2023/10/21 00:44:22;;;;;;;46.70;44.10;;;;;;;-141.02;65.13;42486.56;5115073;28;20225;-69
2023/10/21 00:46:56;;;;;;;47.20;44.50;;;;;;;-141.02;65.05;42513.44;5114967;28;20612;-70
2023/10/21 00:49:23;;;;;;;46.42;43.83;;;;;;;-141.02;64.87;42494.25;5115312;28;20291;-69
2023/10/21 00:51:55;;;;;;;46.78;44.17;;;;;;;-141.02;64.86;42486.56;5114940;28;20244;-68
2023/10/21 00:54:23;;;;;;;44.70;42.28;;;;;;;-141.02;64.49;42507.69;5115094;28;20277;-68
2023/10/21 00:56:52;;;;;;;46.53;43.92;;;;;;;-141.02;65.12;42515.34;5113700;28;20282;-69
2023/10/21 00:59:19;;;;;;;48.13;45.42;;;;;;;-141.02;65.26;42532.63;5115053;28;20543;-68
2023/10/21 01:01:46;;;;;;;46.85;44.25;;;;;;;-141.02;65.41;42505.75;5115347;28;20200;-69
2023/10/21 01:04:16;;;;;;;47.75;45.05;;;;;;;-141.02;65.42;42517.28;5114967;28;20193;-69
2023/10/21 01:06:51;;;;;;;46.20;43.67;;;;;;;-141.02;64.15;42498.06;5115054;28;20193;-69
2023/10/21 01:09:26;;;;;;;45.88;43.28;;;;;;;-141.02;64.65;42505.75;5114559;28;20206;-70
2023/10/21 01:12:01;;;;;;;46.72;44.13;;;;;;;-141.02;64.62;42496.16;5115158;28;20181;-69
2023/10/21 01:14:29;;;;;;;44.55;42.08;;;;;;;-141.02;64.97;42494.25;5114646;28;20658;-68
2023/10/21 01:16:56;;;;;;;47.55;44.85;;;;;;;-141.02;64.46;42521.13;5114833;28;20254;-68
2023/10/21 01:19:23;;;;;;;47.10;44.42;;;;;;;-141.02;64.13;42513.44;5114780;28;20597;-69
2023/10/21 01:21:57;;;;;;;46.28;43.67;;;;;;;-141.02;64.38;42494.25;5114370;28;20193;-69
2023/10/21 01:24:25;;;;;;;48.17;45.47;;;;;;;-141.02;64.17;42501.91;5114178;28;20662;-70
2023/10/21 01:26:53;;;;;;;46.03;43.53;;;;;;;-141.02;64.04;42501.91;5114268;28;20667;-69
2023/10/21 01:29:20;;;;;;;45.13;42.63;;;;;;;-141.02;64.40;42517.28;5114464;28;20228;-70
2023/10/21 01:31:47;;;;;;;42.78;40.47;;;;;;;-141.02;63.90;42524.94;5114936;28;20201;-70
2023/10/21 01:34:15;;;;;;;47.20;44.60;;;;;;;-141.02;64.01;42490.41;5114071;28;20224;-68
2023/10/21 01:40:13;;;;;;;46.03;43.42;;;;;;;-141.02;63.53;42498.06;5114151;28;20184;-69
2023/10/21 01:42:59;;;;;;;45.60;43.00;;;;;;;-141.02;63.67;42492.31;5112566;28;20197;-70
2023/10/21 01:45:26;;;;;;;45.25;42.75;;;;;;;-141.02;63.82;42482.72;5113880;27;20196;-69
2023/10/21 01:47:53;;;;;;;39.00;37.00;;;;;;;-141.02;64.13;42511.50;5113826;28;20201;-69
2023/10/21 01:50:21;;;;;;;33.67;31.98;;;;;;;-141.02;64.04;42532.63;5114090;28;20270;-69
2023/10/21 01:52:48;;;;;;;46.25;43.65;;;;;;;-141.02;63.53;42498.06;5114006;28;20576;-69
2023/10/21 01:55:16;;;;;;;48.78;45.97;;;;;;;-141.02;63.90;42526.88;5113985;28;20297;-69
2023/10/21 01:57:44;;;;;;;47.60;44.90;;;;;;;-141.02;63.50;42501.91;5113591;28;20224;-69
2023/10/21 02:00:18;;;;;;;44.30;41.90;;;;;;;-141.02;63.11;42503.84;5113513;28;20242;-69
2023/10/21 02:02:49;;;;;;;47.88;45.28;;;;;;;-141.02;63.75;42509.59;5113958;28;20184;-69
2023/10/21 02:05:16;;;;;;;46.83;44.22;;;;;;;-141.02;62.81;42501.91;5113590;28;20254;-69
2023/10/21 02:07:44;;;;;;;48.00;45.35;;;;;;;-141.02;63.32;42503.84;5113726;28;20266;-68
2023/10/21 02:10:11;;;;;;;47.55;44.90;;;;;;;-141.02;63.38;42482.72;5113615;28;20303;-67
2023/10/21 02:12:39;;;;;;;47.13;44.53;;;;;;;-141.02;63.87;42482.72;5113481;28;20205;-67
2023/10/21 02:15:11;;;;;;;47.70;45.03;;;;;;;-141.02;64.33;42511.50;5113139;28;20271;-69
2023/10/21 02:17:39;;;;;;;46.65;44.05;;;;;;;-141.02;63.79;42513.44;5113889;28;20200;-68
2023/10/21 02:20:08;;;;;;;21.80;20.70;;;;;;;-141.02;63.17;42492.31;5113569;28;20208;-68
2023/10/21 02:22:35;;;;;;;21.70;20.60;;;;;;;-141.02;63.89;42511.50;5113227;28;20240;-68
2023/10/21 02:25:02;;;;;;;21.05;20.05;;;;;;;-141.02;64.42;42517.28;5113387;28;20197;-68
2023/10/21 02:27:29;;;;;;;46.95;44.35;;;;;;;-141.02;64.01;42498.06;5113307;28;20275;-68
2023/10/21 02:29:58;;;;;;;39.22;37.22;;;;;;;-141.02;64.20;42501.91;5113302;28;20235;-68
2023/10/21 02:33:08;;;;;;;47.10;44.50;;;;;;;-141.02;64.74;42490.41;5112961;28;20197;-69
2023/10/21 02:35:35;;;;;;;46.25;43.75;;;;;;;-141.02;64.23;42484.63;5113538;28;20242;-69
2023/10/21 02:38:56;;;;;;;25.75;24.42;;;;;;;-141.02;64.17;42471.19;5112932;28;20254;-70
2023/10/21 02:41:23;;;;;;;21.15;20.05;;;;;;;-141.02;64.47;42501.91;5113113;28;20383;-68
2023/10/21 02:43:50;;;;;;;21.05;19.95;;;;;;;-141.02;64.38;42494.25;5112815;28;20189;-68
2023/10/21 02:46:19;;;;;;;46.63;44.03;;;;;;;-141.02;63.75;42471.19;5112943;28;20217;-67
2023/10/21 02:48:52;;;;;;;47.53;44.92;;;;;;;-141.02;63.81;42436.66;5113138;28;20197;-69
2023/10/21 02:51:19;;;;;;;46.65;44.15;;;;;;;-141.02;63.67;42490.41;5112993;28;20621;-68
2023/10/21 02:53:46;;;;;;;48.40;45.80;;;;;;;-141.02;63.95;42448.16;5112509;28;20598;-69
2023/10/21 02:56:44;;;;;;;48.45;45.85;;;;;;;-141.02;64.33;42448.16;5110763;28;20189;-69
2023/10/21 02:59:14;;;;;;;20.90;19.90;;;;;;;-141.02;64.30;42471.19;5072025;28;20190;-68
2023/10/21 03:01:42;;;;;;;22.02;20.92;;;;;;;-141.02;64.37;42457.75;5072464;28;20323;-69
2023/10/21 03:04:09;;;;;;;21.38;20.27;;;;;;;-141.02;64.41;42465.44;5071858;28;20585;-70
2023/10/21 03:06:37;;;;;;;47.67;45.05;;;;;;;-141.02;64.62;42480.81;5071947;28;20704;-70
2023/10/21 03:09:06;;;;;;;44.40;42.00;;;;;;;-141.02;64.48;42455.84;5071930;28;20194;-70
2023/10/21 03:11:33;;;;;;;44.80;42.40;;;;;;;-141.02;64.79;42448.16;5072203;28;20196;-69
2023/10/21 03:14:00;;;;;;;44.88;42.47;;;;;;;-141.02;64.53;42436.66;5072100;28;20222;-68
2023/10/21 03:16:28;;;;;;;42.42;40.22;;;;;;;-141.02;64.67;42490.41;5072139;28;20205;-71
2023/10/21 03:18:56;;;;;;;21.02;19.95;;;;;;;-141.02;65.00;42446.25;5072086;28;20225;-68
2023/10/21 03:21:23;;;;;;;21.17;20.08;;;;;;;-141.02;65.48;42446.25;5071570;28;20267;-67
2023/10/21 03:23:52;;;;;;;21.45;20.35;;;;;;;-141.02;65.07;42446.25;5072123;28;20209;-68
2023/10/21 03:26:21;;;;;;;43.78;41.38;;;;;;;-141.02;65.09;42444.34;5071649;28;20627;-69
2023/10/21 03:28:50;;;;;;;46.05;43.55;;;;;;;-141.02;65.54;42430.91;5072266;28;20244;-68
2023/10/21 03:31:17;;;;;;;45.70;43.28;;;;;;;-141.02;65.81;42432.81;5071722;28;20195;-67
2023/10/21 03:33:45;;;;;;;43.92;41.63;;;;;;;-141.02;66.11;42455.84;5071906;28;20252;-67
2023/10/21 03:36:13;;;;;;;48.42;45.83;;;;;;;-141.02;65.87;42436.66;5071654;28;20195;-68
2023/10/21 03:38:40;;;;;;;20.80;19.80;;;;;;;-141.02;66.13;42438.56;5071593;28;20190;-68
2023/10/21 03:41:09;;;;;;;24.70;23.13;;;;;;;-141.02;66.95;42444.34;5071923;28;20277;-68
2023/10/21 03:43:37;;;;;;;21.02;19.92;;;;;;;-141.02;66.62;42455.84;5071773;28;20195;-67
2023/10/21 03:46:28;;;;;;;47.35;44.65;;;;;;;-141.02;66.85;42432.81;5071822;28;20281;-68
2023/10/21 03:48:56;;;;;;;47.88;45.28;;;;;;;-141.02;67.02;42442.41;5071477;28;20618;-67
2023/10/21 03:51:24;;;;;;;46.42;43.92;;;;;;;-141.02;67.63;42432.81;5071836;28;20256;-68
2023/10/21 03:53:51;;;;;;;46.30;43.80;;;;;;;-141.02;67.80;42442.41;5071370;28;20230;-67
2023/10/21 03:56:18;;;;;;;44.17;41.88;;;;;;;-141.02;67.05;42432.81;5071427;28;20649;-67
2023/10/21 03:58:46;;;;;;;21.00;20.00;;;;;;;-141.02;67.52;42432.81;5105309;28;20309;-68
2023/10/21 04:04:34;;;;;;;43.58;41.17;;;;;;;-141.02;67.94;42404.03;5112130;28;20185;-69
2023/10/21 04:07:04;;;;;;;44.50;42.10;;;;;;;-141.02;68.11;42444.34;5112147;28;20246;-67
2023/10/21 04:09:31;;;;;;;44.92;42.53;;;;;;;-141.02;68.21;42428.97;5112185;28;20189;-68
2023/10/21 04:11:59;;;;;;;44.63;42.33;;;;;;;-141.02;67.87;42432.81;5112128;28;20197;-67
2023/10/21 04:14:26;;;;;;;49.38;46.78;;;;;;;-141.02;68.04;42436.66;5112035;28;20247;-67
2023/10/21 04:16:53;;;;;;;20.90;19.90;;;;;;;-141.02;68.37;42425.13;5112184;28;20197;-68
2023/10/21 04:19:19;;;;;;;21.15;20.13;;;;;;;-141.02;68.62;42436.66;5111678;28;20719;-68
2023/10/21 04:21:46;;;;;;;21.17;20.17;;;;;;;-141.02;69.18;42450.09;5112073;28;20219;-69
2023/10/21 04:24:15;;;;;;;44.20;41.80;;;;;;;-141.02;69.55;42476.97;5111985;28;20619;-68
2023/10/21 04:26:42;;;;;;;45.53;43.13;;;;;;;-141.02;69.71;42455.84;5111972;28;20694;-68
2023/10/21 04:29:09;;;;;;;46.15;43.75;;;;;;;-141.02;70.30;42476.97;5111722;28;20686;-68
2023/10/21 04:31:38;;;;;;;45.13;42.83;;;;;;;-141.02;70.26;42511.50;5111899;28;20205;-68
2023/10/21 04:34:05;;;;;;;46.10;43.70;;;;;;;-141.02;70.86;42548.00;5115182;28;20262;-68
2023/10/21 04:36:32;;;;;;;20.55;19.55;;;;;;;-141.02;71.36;42555.66;5115270;28;20254;-68
2023/10/21 04:38:59;;;;;;;20.30;19.30;;;;;;;-141.02;71.50;42594.06;5115235;28;20702;-67
2023/10/21 04:41:27;;;;;;;20.67;19.67;;;;;;;-141.02;71.42;42643.97;5115407;28;20189;-68
2023/10/21 04:43:55;;;;;;;42.88;40.55;;;;;;;-141.02;71.31;42674.69;5115708;28;20232;-69
2023/10/21 04:46:22;;;;;;;45.72;43.33;;;;;;;-141.02;71.89;42693.88;5115031;28;20189;-69
2023/10/21 04:48:49;;;;;;;44.70;42.30;;;;;;;-141.02;71.72;42764.91;5115250;27;20196;-68
2023/10/21 04:51:16;;;;;;;43.05;40.75;;;;;;;-141.02;71.87;42810.97;5115293;28;20228;-69
2023/10/21 04:53:43;;;;;;;42.15;39.95;;;;;;;-141.02;71.83;42862.81;5115175;28;20225;-68
2023/10/21 04:56:10;;;;;;;21.55;20.45;;;;;;;-141.02;72.57;42858.97;5115177;28;20308;-68
2023/10/21 04:58:38;;;;;;;20.60;19.60;;;;;;;-141.02;72.37;42893.53;5114884;28;20721;-69
2023/10/21 05:01:05;;;;;;;21.02;20.02;;;;;;;-141.02;72.57;42899.28;5115041;28;20224;-68
2023/10/21 05:03:32;;;;;;;38.63;36.55;;;;;;;-141.02;71.97;42918.50;5115342;28;20578;-68
2023/10/21 05:05:59;;;;;;;36.97;35.08;;;;;;;-141.02;72.23;42930.00;5114708;28;20197;-69
2023/10/21 05:08:26;;;;;;;35.88;34.08;;;;;;;-141.02;72.42;42974.16;5115062;28;20276;-69
2023/10/21 05:10:53;;;;;;;23.83;22.63;;;;;;;-141.02;72.96;42995.28;5114627;28;20751;-69
2023/10/21 05:13:20;;;;;;;20.30;19.30;;;;;;;-141.02;71.99;43010.63;5114801;28;20215;-68
2023/10/21 05:15:48;;;;;;;20.58;19.58;;;;;;;-141.02;71.79;43024.06;5114693;28;20231;-72
2023/10/21 05:18:15;;;;;;;20.50;19.50;;;;;;;-141.02;72.08;43037.50;5114416;28;20204;-70
2023/10/21 05:20:42;;;;;;;19.75;18.75;;;;;;;-141.02;71.73;43029.84;5114475;28;20198;-69
2023/10/21 05:23:09;;;;;;;20.20;19.20;;;;;;;-141.02;70.48;43020.25;5114642;28;20298;-69
2023/10/21 05:25:36;;;;;;;19.65;18.65;;;;;;;-141.02;70.41;43012.56;5114405;28;20288;-68
2023/10/21 05:28:03;;;;;;;20.73;19.63;;;;;;;-141.02;70.54;43027.91;5114607;28;20246;-69
2023/10/21 05:30:30;;;;;;;20.05;19.05;;;;;;;-141.02;70.36;43014.47;5114522;28;20193;-70
2023/10/21 05:32:58;;;;;;;20.77;19.77;;;;;;;-141.02;69.76;43037.50;5114195;28;20284;-72
2023/10/21 05:35:25;;;;;;;19.77;18.77;;;;;;;-141.02;69.90;43027.91;5114573;28;20228;-68
2023/10/21 05:37:52;;;;;;;20.50;19.40;;;;;;;-141.02;70.04;43012.56;5114033;28;20224;-70
2023/10/21 05:40:19;;;;;;;19.85;18.85;;;;;;;-141.02;68.96;43035.59;5114173;28;20284;-69
2023/10/21 05:42:46;;;;;;;20.00;19.00;;;;;;;-141.02;68.65;43039.44;5113443;28;20225;-69
2023/10/21 05:45:13;;;;;;;20.13;19.02;;;;;;;-141.02;68.63;43043.28;5114258;28;20254;-68
2023/10/21 05:47:40;;;;;;;20.00;18.90;;;;;;;-141.02;66.39;43074.00;5113927;28;20284;-71
2023/10/21 05:50:09;;;;;;;20.80;19.70;;;;;;;-141.02;66.42;43008.72;5114983;28;20250;-70
2023/10/21 05:52:36;;;;;;;19.45;18.45;;;;;;;-141.02;65.96;43027.91;5113878;28;20284;-68
2023/10/21 05:55:05;;;;;;;20.40;19.30;;;;;;;-141.02;65.56;43047.13;5113623;28;20224;-69
2023/10/21 05:57:32;;;;;;;19.35;18.35;;;;;;;-141.02;65.90;43029.84;5113749;27;20339;-68
2023/10/21 05:59:59;;;;;;;20.65;19.55;;;;;;;-141.02;65.89;43031.75;5114183;27;20343;-68
2023/10/21 06:02:26;;;;;;;20.40;19.30;;;;;;;-141.02;65.78;43039.44;5113635;28;20235;-68
2023/10/21 06:04:53;;;;;;;19.83;18.75;;;;;;;-141.02;64.95;43049.03;5113746;28;20213;-68
2023/10/21 06:07:21;;;;;;;21.58;20.48;;;;;;;-141.02;65.01;43047.13;5113840;28;20737;-68
2023/10/21 06:09:48;;;;;;;19.80;18.80;;;;;;;-141.02;64.59;43050.97;5113480;28;20670;-69
2023/10/21 06:12:15;;;;;;;21.08;19.98;;;;;;;-141.02;64.88;43020.25;5113381;28;20695;-69
2023/10/21 06:14:42;;;;;;;19.65;18.65;;;;;;;-141.02;65.62;43020.25;5113656;28;20231;-69
2023/10/21 06:17:09;;;;;;;20.30;19.30;;;;;;;-141.02;63.96;43074.00;5113237;28;20189;-69
2023/10/21 06:19:36;;;;;;;19.85;18.85;;;;;;;-141.02;63.46;43047.13;5113577;28;20236;-69
2023/10/21 06:22:03;;;;;;;20.38;19.27;;;;;;;-141.02;63.76;43012.56;5113479;28;20197;-69
2023/10/21 06:24:32;;;;;;;19.25;18.25;;;;;;;-141.02;62.87;43024.06;5113444;28;20193;-70
2023/10/21 06:27:00;;;;;;;19.73;18.73;;;;;;;-141.02;62.42;43056.72;5113402;28;20292;-69
2023/10/21 06:29:27;;;;;;;19.92;18.88;;;;;;;-141.02;62.43;43045.19;5113027;28;20200;-69
2023/10/21 06:31:54;;;;;;;20.38;19.33;;;;;;;-141.02;62.25;43024.06;5113376;28;20253;-69
2023/10/21 06:34:21;;;;;;;20.20;19.15;;;;;;;-141.02;61.64;43037.50;5113309;28;20250;-68
2023/10/21 06:36:48;;;;;;;19.40;18.40;;;;;;;-141.02;61.75;43027.91;5112939;28;20280;-68
2023/10/21 06:39:15;;;;;;;20.23;19.15;;;;;;;-141.02;61.05;43031.75;5113244;28;20224;-68
2023/10/21 06:41:44;;;;;;;19.40;18.40;;;;;;;-141.02;60.83;43077.84;5112792;28;20197;-68
2023/10/21 06:44:11;;;;;;;19.98;18.98;;;;;;;-141.02;61.17;43020.25;5112758;28;20189;-69
2023/10/21 06:46:38;;;;;;;19.45;18.45;;;;;;;-141.02;60.68;43027.91;5112731;28;20700;-70
2023/10/21 06:49:05;;;;;;;20.52;19.52;;;;;;;-141.02;60.12;43075.91;5112755;28;20197;-69
2023/10/21 06:51:32;;;;;;;19.48;18.48;;;;;;;-141.02;60.09;43035.59;5113047;28;20232;-71
2023/10/21 06:54:00;;;;;;;20.48;19.38;;;;;;;-141.02;60.30;43027.91;5112532;28;20693;-71
2023/10/21 06:56:27;;;;;;;19.65;18.65;;;;;;;-141.02;59.52;43014.47;5112260;28;20311;-69
2023/10/21 06:58:55;;;;;;;21.15;20.15;;;;;;;-141.02;59.49;43022.16;5112409;28;20312;-73
2023/10/21 07:01:22;;;;;;;19.20;18.20;;;;;;;-141.02;59.83;43062.47;5112914;28;20193;-68
2023/10/21 07:03:49;;;;;;;19.58;18.58;;;;;;;-141.02;59.60;43043.28;5113081;28;20204;-69
2023/10/21 07:06:16;;;;;;;18.67;17.77;;;;;;;-141.02;59.12;43062.47;5112832;28;20653;-69
2023/10/21 07:08:43;;;;;;;19.52;18.52;;;;;;;-141.02;59.09;43097.03;5112790;28;20189;-68
2023/10/21 07:11:10;;;;;;;20.52;19.52;;;;;;;-141.02;59.10;43066.31;5112720;28;20199;-69
2023/10/21 07:13:38;;;;;;;18.85;17.95;;;;;;;-141.02;58.81;43068.22;5112701;28;20204;-68
2023/10/21 07:16:11;;;;;;;19.48;18.48;;;;;;;-141.02;59.17;43056.72;5112539;28;20225;-68
2023/10/21 07:18:38;;;;;;;20.05;18.98;;;;;;;-141.02;59.02;43095.13;5112718;28;20200;-70
2023/10/21 07:21:05;;;;;;;20.40;19.30;;;;;;;-141.02;58.08;43123.91;5112538;28;20291;-68
2023/10/21 07:23:33;;;;;;;20.15;19.05;;;;;;;-141.02;57.89;43118.16;5112649;28;20200;-69
2023/10/21 07:26:00;;;;;;;19.55;18.55;;;;;;;-141.02;57.49;43154.63;5112696;28;20295;-68
2023/10/21 07:28:27;;;;;;;19.27;18.27;;;;;;;-141.02;57.74;43189.19;5112561;28;20718;-69
2023/10/21 07:30:54;;;;;;;19.83;18.83;;;;;;;-141.02;57.95;43183.44;5112210;28;20229;-71
2023/10/21 07:33:23;;;;;;;19.38;18.38;;;;;;;-141.02;57.39;43200.72;5112460;28;20229;-68
2023/10/21 07:35:51;;;;;;;19.42;18.42;;;;;;;-141.02;56.82;43162.31;5112193;28;20277;-70
2023/10/21 07:38:19;;;;;;;20.38;19.30;;;;;;;-141.02;56.10;43162.31;5112172;28;20651;-68
2023/10/21 07:40:46;;;;;;;20.05;19.05;;;;;;;-141.02;56.21;43171.91;5112118;28;20197;-69
2023/10/21 07:43:16;;;;;;;19.75;18.75;;;;;;;-141.02;56.13;43189.19;5112423;28;20307;-69
2023/10/21 07:45:43;;;;;;;20.02;18.92;;;;;;;-141.02;56.09;43193.03;5112279;28;20200;-68
2023/10/21 07:48:10;;;;;;;19.88;18.85;;;;;;;-141.02;56.58;43266.00;5112065;28;20730;-68
2023/10/21 07:50:39;;;;;;;20.05;18.95;;;;;;;-141.02;56.46;43212.22;5112348;28;20272;-69
2023/10/21 07:53:07;;;;;;;20.17;19.08;;;;;;;-141.02;56.28;43206.47;5112272;28;20228;-70
2023/10/21 07:55:34;;;;;;;20.27;19.17;;;;;;;-141.02;55.54;43206.47;5112233;28;20225;-70
2023/10/21 07:58:01;;;;;;;19.95;18.85;;;;;;;-141.02;54.89;43160.38;5111789;28;20229;-69
2023/10/21 08:00:29;;;;;;;20.35;19.25;;;;;;;-141.02;54.37;43146.94;5112377;28;20262;-70
2023/10/21 08:02:56;;;;;;;19.80;18.70;;;;;;;-141.02;53.68;43166.16;5111925;28;20567;-71
2023/10/21 08:05:24;;;;;;;19.90;18.80;;;;;;;-141.02;53.12;43183.44;5111898;28;20645;-71
2023/10/21 08:07:53;;;;;;;19.65;18.55;;;;;;;-141.02;54.01;43154.63;5115339;28;20659;-70
2023/10/21 08:10:19;;;;;;;19.42;18.35;;;;;;;-141.02;54.23;43181.50;5115843;28;20634;-68
2023/10/21 08:12:46;;;;;;;19.50;18.40;;;;;;;-141.02;54.17;43196.88;5115828;28;20648;-68
2023/10/21 08:15:14;;;;;;;19.23;18.23;;;;;;;-141.02;54.03;43227.59;5115598;28;20197;-68
2023/10/21 08:17:41;;;;;;;23.77;22.02;;;;;;;-141.02;53.60;43183.44;5115935;28;20200;-67
2023/10/21 08:20:09;;;;;;;19.55;18.45;;;;;;;-141.02;53.20;43219.91;5115846;28;20197;-69
2023/10/21 08:22:37;;;;;;;19.35;18.25;;;;;;;-141.02;53.59;43229.50;5115569;28;20674;-70
2023/10/21 08:25:06;;;;;;;19.27;18.25;;;;;;;-141.02;52.90;43223.75;5115527;28;20283;-69
2023/10/21 08:27:33;;;;;;;18.88;17.88;;;;;;;-141.02;53.34;43218.00;5115640;28;20189;-69
2023/10/21 08:30:00;;;;;;;18.92;17.92;;;;;;;-141.02;53.07;43223.75;5115829;28;20576;-68
2023/10/21 08:32:27;;;;;;;19.20;18.20;;;;;;;-141.02;52.82;43250.63;5115631;28;20196;-69
2023/10/21 08:34:54;;;;;;;18.80;17.90;;;;;;;-141.02;52.76;43258.31;5115677;28;20224;-69
2023/10/21 08:37:21;;;;;;;18.98;17.98;;;;;;;-141.02;53.04;43241.03;5115213;28;20268;-69
2023/10/21 08:39:48;;;;;;;19.05;18.05;;;;;;;-141.02;51.58;43252.56;5115246;28;20232;-68
2023/10/21 08:42:18;;;;;;;19.20;18.20;;;;;;;-141.02;51.17;43250.63;5115222;28;20573;-68
2023/10/21 08:44:46;;;;;;;18.85;17.85;;;;;;;-141.02;50.91;43258.31;5115476;28;20193;-69
2023/10/21 08:47:15;;;;;;;18.90;17.90;;;;;;;-141.02;51.19;43290.94;5115108;28;20201;-69
2023/10/21 08:49:45;;;;;;;17.65;16.75;;;;;;;-141.02;50.86;43266.00;5114965;28;20643;-69
2023/10/21 08:52:14;;;;;;;17.75;16.85;;;;;;;-141.02;50.84;43277.50;5114988;28;20201;-69
2023/10/21 08:54:43;;;;;;;18.73;17.73;;;;;;;-141.02;50.45;43281.34;5115209;28;20197;-69
2023/10/21 08:57:10;;;;;;;18.42;17.42;;;;;;;-141.02;50.67;43300.56;5114738;28;20232;-69
2023/10/21 08:59:39;;;;;;;18.70;17.70;;;;;;;-141.02;50.62;43323.59;5114984;28;20189;-69
2023/10/21 09:02:06;;;;;;;18.58;17.58;;;;;;;-141.02;50.14;43304.38;5114846;28;20193;-68
2023/10/21 09:04:34;;;;;;;18.55;17.65;;;;;;;-141.02;50.58;43323.59;5115106;28;20193;-67
2023/10/21 09:07:02;;;;;;;18.60;17.60;;;;;;;-141.02;50.60;43342.78;5115032;28;20276;-69
2023/10/21 09:09:30;;;;;;;18.48;17.48;;;;;;;-141.02;51.00;43354.31;5115084;28;20197;-69
2023/10/21 09:12:05;;;;;;;18.27;17.38;;;;;;;-141.02;50.96;43385.03;5114577;28;20197;-69
2023/10/21 09:14:50;;;;;;;19.63;18.63;;;;;;;-141.02;50.82;43358.16;5114655;28;20283;-68
2023/10/21 09:17:18;;;;;;;18.38;17.48;;;;;;;-141.02;50.41;43381.19;5114494;28;20231;-69
2023/10/21 09:19:48;;;;;;;18.65;17.65;;;;;;;-141.02;50.34;43369.66;5114042;28;20232;-69
2023/10/21 09:22:22;;;;;;;18.23;17.33;;;;;;;-141.02;49.92;43396.56;5114456;28;20755;-70
2023/10/21 09:24:49;;;;;;;18.45;17.55;;;;;;;-141.02;50.21;43394.63;5114968;28;20185;-68
2023/10/21 09:27:16;;;;;;;18.52;17.63;;;;;;;-141.02;50.53;43390.78;5114342;28;20284;-69
2023/10/21 09:29:43;;;;;;;18.90;17.90;;;;;;;-141.02;50.35;43423.44;5114579;28;20193;-68
2023/10/21 09:32:10;;;;;;;18.85;17.85;;;;;;;-141.02;50.43;43388.88;5114291;28;20193;-68
2023/10/21 09:34:40;;;;;;;18.95;18.05;;;;;;;-141.02;50.79;43438.78;5114181;28;20570;-71
2023/10/21 09:37:08;;;;;;;18.55;17.65;;;;;;;-141.02;50.66;43448.41;5114366;28;20213;-69
2023/10/21 09:39:37;;;;;;;18.70;17.80;;;;;;;-141.02;50.56;43461.84;5114324;28;20197;-68
2023/10/21 09:42:05;;;;;;;18.58;17.67;;;;;;;-141.02;50.47;43440.72;5114005;28;20193;-71
2023/10/21 09:44:34;;;;;;;18.10;17.20;;;;;;;-141.02;50.33;43410.00;5114541;28;20274;-68
2023/10/21 09:47:05;;;;;;;18.67;17.67;;;;;;;-141.02;49.96;43421.50;5114210;28;20261;-68
2023/10/21 09:49:38;;;;;;;18.67;17.77;;;;;;;-141.02;49.83;43434.94;5113899;27;20723;-68
2023/10/21 09:52:09;;;;;;;19.40;18.40;;;;;;;-141.02;49.14;43448.41;5113859;28;20192;-68
2023/10/21 09:54:41;;;;;;;32.15;30.13;;;;;;;-141.02;49.02;43484.88;5113853;28;20196;-68
2023/10/21 09:57:10;;;;;;;19.30;18.30;;;;;;;-141.02;48.93;43459.91;5113538;28;20715;-71
2023/10/21 09:59:38;;;;;;;19.90;18.90;;;;;;;-141.02;48.64;43473.34;5114045;28;20224;-70
2023/10/21 10:02:06;;;;;;;18.67;17.77;;;;;;;-141.02;48.85;43492.56;5113477;28;20208;-68
2023/10/21 10:04:44;;;;;;;18.83;17.92;;;;;;;-141.02;49.08;43511.75;5113600;28;20280;-68
2023/10/21 10:07:12;;;;;;;19.13;18.13;;;;;;;-141.02;49.10;43523.28;5113812;28;20276;-70
2023/10/21 10:09:42;;;;;;;18.98;18.08;;;;;;;-141.02;48.82;43515.59;5113898;28;20203;-68
2023/10/21 10:12:24;;;;;;;18.67;17.77;;;;;;;-141.02;48.77;43534.78;5113661;28;20185;-68
2023/10/21 10:14:53;;;;;;;19.38;18.38;;;;;;;-141.02;49.04;43538.63;5113458;28;20185;-68
2023/10/21 10:17:47;;;;;;;19.05;18.08;;;;;;;-141.02;48.84;43546.31;5113609;28;20225;-68
2023/10/21 10:20:21;;;;;;;18.88;17.98;;;;;;;-141.02;49.10;43561.69;5113249;28;20236;-69
2023/10/21 10:22:50;;;;;;;18.42;17.52;;;;;;;-141.02;48.89;43577.03;5113269;28;20648;-68
2023/10/21 10:25:26;;;;;;;18.60;17.70;;;;;;;-141.02;48.75;43603.94;5113056;28;20207;-67
2023/10/21 10:27:58;;;;;;;18.55;17.65;;;;;;;-141.02;48.86;43617.38;5113426;28;20197;-68
2023/10/21 10:30:25;;;;;;;18.23;17.40;;;;;;;-141.02;48.82;43650.00;5113382;28;20197;-68
2023/10/21 10:32:53;;;;;;;18.35;17.45;;;;;;;-141.02;49.03;43636.56;5113124;28;20651;-69
2023/10/21 10:35:32;;;;;;;18.42;17.52;;;;;;;-141.02;48.94;43653.84;5113618;28;20227;-68
2023/10/21 10:38:00;;;;;;;18.38;17.48;;;;;;;-141.02;48.88;43667.28;5113221;28;20669;-68
2023/10/21 10:40:35;;;;;;;18.00;17.15;;;;;;;-141.02;48.92;43671.13;5113177;28;20279;-68
2023/10/21 10:43:11;;;;;;;18.38;17.48;;;;;;;-141.02;48.99;43719.13;5112887;28;20660;-68
2023/10/21 10:45:38;;;;;;;18.65;17.75;;;;;;;-141.02;49.46;43688.41;5113124;28;20197;-68
2023/10/21 10:48:07;;;;;;;17.55;16.75;;;;;;;-141.02;48.89;43688.41;5113125;27;20261;-68
2023/10/21 10:50:37;;;;;;;18.65;17.75;;;;;;;-141.02;48.87;43699.94;5112802;28;20735;-68
2023/10/21 10:53:15;;;;;;;17.95;17.08;;;;;;;-141.02;49.05;43751.78;5113274;28;20197;-67
2023/10/21 10:55:45;;;;;;;18.55;17.55;;;;;;;-141.02;48.55;43820.91;5113337;28;20254;-68
2023/10/21 10:58:12;;;;;;;18.50;17.60;;;;;;;-141.02;48.84;43830.50;5112540;28;20319;-69
2023/10/21 11:00:40;;;;;;;18.17;17.27;;;;;;;-141.02;48.88;43845.88;5112919;28;20297;-68
2023/10/21 11:03:08;;;;;;;18.23;17.33;;;;;;;-141.02;49.23;43865.09;5113002;28;20215;-67
2023/10/21 11:05:38;;;;;;;18.23;17.33;;;;;;;-141.02;49.42;43855.47;5112553;28;20194;-69
2023/10/21 11:08:07;;;;;;;18.20;17.30;;;;;;;-141.02;49.14;43880.44;5112560;28;20193;-67
2023/10/21 11:10:34;;;;;;;18.35;17.45;;;;;;;-141.02;48.83;43901.56;5112485;28;20195;-68
2023/10/21 11:13:03;;;;;;;18.48;17.58;;;;;;;-141.02;49.27;43891.97;5112795;28;20635;-68
2023/10/21 11:15:30;;;;;;;18.00;17.10;;;;;;;-141.02;49.52;43918.84;5112499;28;20569;-68
2023/10/21 11:17:57;;;;;;;18.70;17.70;;;;;;;-141.02;49.69;43899.66;5112776;28;20260;-68